createdAt,value
2023-04-01T00:02:01.843Z,28.50
2023-04-01T00:04:29.640Z,28.30
2023-04-01T00:06:57.817Z,29.90
2023-04-01T00:09:25.468Z,28.90
2023-04-01T00:11:57.633Z,30.00
2023-04-01T00:14:25.276Z,29.30
2023-04-01T00:16:53.499Z,28.80
2023-04-01T00:19:21.311Z,30.40
2023-04-01T00:21:48.965Z,33.30
2023-04-01T00:24:16.634Z,34.10
2023-04-01T00:26:45.529Z,34.10
2023-04-01T00:29:13.445Z,36.40
2023-04-01T00:31:41.319Z,35.90
2023-04-01T00:34:09.345Z,35.00
2023-04-01T00:36:37.011Z,35.90
2023-04-01T00:39:04.712Z,35.70
2023-04-01T00:41:32.317Z,34.70
2023-04-01T00:44:17.312Z,36.20
2023-04-01T00:46:45.514Z,35.60
2023-04-01T00:49:14.102Z,37.00
2023-04-01T00:51:43.036Z,36.20
2023-04-01T00:54:11.438Z,34.70
2023-04-01T00:56:43.849Z,31.70
2023-04-01T00:59:16.092Z,30.10
2023-04-01T01:01:43.869Z,30.70
2023-04-01T01:04:24.098Z,31.30
2023-04-01T01:07:10.289Z,31.20
2023-04-01T01:09:43.731Z,33.90
2023-04-01T01:12:15.335Z,31.60
2023-04-01T01:14:55.262Z,29.20
2023-04-01T01:17:34.328Z,29.90
2023-04-01T01:20:26.102Z,31.00
2023-04-01T01:23:35.911Z,30.00
2023-04-01T01:26:41.026Z,30.60
2023-04-01T01:29:27.725Z,32.00
2023-04-01T01:32:18.015Z,33.30
2023-04-01T01:35:10.886Z,33.40
2023-04-01T01:37:39.629Z,33.70
2023-04-01T01:40:10.909Z,34.20
2023-04-01T01:42:41.653Z,33.60
2023-04-01T01:45:10.373Z,33.90
2023-04-01T01:47:38.808Z,32.50
2023-04-01T01:50:09.012Z,30.70
2023-04-01T01:52:36.916Z,31.70
2023-04-01T01:55:28.796Z,31.60
2023-04-01T01:58:01.512Z,33.10
2023-04-01T02:00:29.697Z,33.70
2023-04-01T02:02:58.498Z,34.50
2023-04-01T02:05:28.142Z,34.60
2023-04-01T02:08:03.991Z,35.20
2023-04-01T02:10:36.812Z,35.00
2023-04-01T02:13:10.961Z,36.40
2023-04-01T02:15:42.984Z,36.40
2023-04-01T02:18:11.808Z,37.60
2023-04-01T02:20:40.858Z,38.80
2023-04-01T02:23:09.105Z,40.10
2023-04-01T02:25:38.260Z,40.70
2023-04-01T02:28:07.595Z,40.90
2023-04-01T02:30:37.210Z,41.10
2023-04-01T02:33:06.411Z,42.50
2023-04-01T02:35:37.149Z,44.10
2023-04-01T02:38:06.135Z,46.20
2023-04-01T02:40:58.152Z,47.40
2023-04-01T02:43:26.331Z,48.70
2023-04-01T02:45:54.272Z,48.50
2023-04-01T02:48:21.987Z,47.00
2023-04-01T02:50:49.729Z,46.80
2023-04-01T02:53:17.888Z,46.80
2023-04-01T02:55:45.997Z,47.60
2023-04-01T02:58:13.608Z,48.70
2023-04-01T03:00:41.253Z,46.80
2023-04-01T03:03:09.327Z,48.00
2023-04-01T03:05:37.006Z,46.40
2023-04-01T03:08:05.722Z,45.90
2023-04-01T03:10:33.530Z,43.20
2023-04-01T03:13:01.931Z,43.00
2023-04-01T03:15:29.640Z,43.30
2023-04-01T03:17:57.340Z,42.70
2023-04-01T03:20:25.053Z,43.10
2023-04-01T03:22:52.682Z,43.10
2023-04-01T03:25:20.877Z,43.20
2023-04-01T03:27:48.558Z,42.50
2023-04-01T03:30:16.381Z,40.90
2023-04-01T03:32:48.476Z,41.60
2023-04-01T03:35:16.458Z,37.30
2023-04-01T03:37:44.242Z,34.30
2023-04-01T03:40:12.501Z,34.20
2023-04-01T03:42:40.285Z,36.20
2023-04-01T03:45:08.160Z,34.20
2023-04-01T03:47:36.396Z,33.70
2023-04-01T03:50:05.563Z,32.40
2023-04-01T03:52:33.746Z,31.80
2023-04-01T03:55:02.379Z,30.40
2023-04-01T03:57:32.712Z,30.00
2023-04-01T04:00:02.102Z,29.90
2023-04-01T04:02:31.029Z,29.90
2023-04-01T04:04:58.962Z,30.10
2023-04-01T04:07:27.889Z,27.90
2023-04-01T04:10:02.661Z,30.00
2023-04-01T04:12:31.173Z,29.90
2023-04-01T04:14:58.850Z,29.50
2023-04-01T04:17:27.007Z,30.80
2023-04-01T04:19:55.866Z,32.80
2023-04-01T04:22:24.132Z,32.90
2023-04-01T04:24:51.849Z,33.50
2023-04-01T04:27:19.880Z,31.50
2023-04-01T04:29:59.871Z,31.60
2023-04-01T04:32:29.294Z,30.20
2023-04-01T04:34:57.734Z,27.60
2023-04-01T04:37:26.808Z,28.50
2023-04-01T04:39:54.720Z,26.80
2023-04-01T04:42:22.584Z,25.10
2023-04-01T04:44:51.496Z,25.70
2023-04-01T04:47:19.256Z,24.80
2023-04-01T04:49:47.107Z,23.70
2023-04-01T04:52:14.740Z,25.30
2023-04-01T04:54:42.409Z,24.90
2023-04-01T04:57:10.408Z,26.00
2023-04-01T04:59:44.244Z,25.40
2023-04-01T05:02:19.902Z,25.80
2023-04-01T05:04:49.145Z,25.00
2023-04-01T05:07:16.759Z,25.30
2023-04-01T05:09:46.756Z,25.20
2023-04-01T05:12:14.532Z,25.50
2023-04-01T05:14:59.794Z,27.20
2023-04-01T05:17:27.610Z,27.50
2023-04-01T05:19:55.376Z,26.10
2023-04-01T05:22:23.124Z,24.30
2023-04-01T05:24:50.944Z,24.40
2023-04-01T05:27:18.696Z,25.40
2023-04-01T05:29:47.760Z,25.90
2023-04-01T05:32:50.849Z,28.20
2023-04-01T05:35:19.701Z,31.40
2023-04-01T05:37:47.340Z,30.70
2023-04-01T05:40:15.391Z,30.80
2023-04-01T05:42:43.036Z,32.00
2023-04-01T05:45:11.011Z,31.30
2023-04-01T05:47:57.407Z,37.40
2023-04-01T05:50:25.194Z,79.80
2023-04-01T05:52:53.730Z,49.10
2023-04-01T05:55:22.084Z,36.90
2023-04-01T05:57:50.780Z,75.00
2023-04-01T06:00:20.755Z,32.50
2023-04-01T06:02:48.775Z,31.00
2023-04-01T06:05:20.570Z,48.90
2023-04-01T06:07:48.814Z,36.00
2023-04-01T06:10:19.502Z,35.20
2023-04-01T06:13:13.360Z,32.60
2023-04-01T06:15:48.762Z,31.80
2023-04-01T06:18:27.229Z,34.70
2023-04-01T06:21:01.231Z,36.60
2023-04-01T06:23:45.793Z,34.70
2023-04-01T06:26:19.814Z,33.50
2023-04-01T06:29:18.884Z,34.50
2023-04-01T06:32:02.376Z,33.80
2023-04-01T06:34:36.988Z,35.10
2023-04-01T06:37:07.986Z,35.30
2023-04-01T06:40:00.940Z,33.50
2023-04-01T06:42:49.844Z,31.30
2023-04-01T06:46:01.519Z,31.30
2023-04-01T06:49:04.504Z,30.20
2023-04-01T06:52:25.794Z,33.20
2023-04-01T06:55:25.724Z,28.20
2023-04-01T06:58:30.455Z,27.80
2023-04-01T07:01:00.445Z,28.10
2023-04-01T07:03:36.247Z,28.30
2023-04-01T07:06:09.418Z,26.30
2023-04-01T07:08:43.158Z,25.50
2023-04-01T07:11:16.531Z,25.70
2023-04-01T07:14:27.222Z,29.10
2023-04-01T07:17:27.275Z,28.40
2023-04-01T07:20:04.003Z,24.90
2023-04-01T07:22:41.586Z,23.30
2023-04-01T07:25:19.239Z,21.80
2023-04-01T07:28:04.561Z,22.90
2023-04-01T07:31:05.348Z,22.70
2023-04-01T07:33:47.777Z,20.40
2023-04-01T07:36:33.821Z,20.50
2023-04-01T07:39:20.399Z,21.00
2023-04-01T07:42:22.796Z,17.80
2023-04-01T07:44:53.479Z,21.50
2023-04-01T07:47:34.917Z,23.40
2023-04-01T07:50:14.833Z,24.60
2023-04-01T07:53:08.465Z,21.90
2023-04-01T07:55:42.406Z,17.20
2023-04-01T07:58:38.441Z,18.60
2023-04-01T08:01:32.578Z,18.20
2023-04-01T08:04:12.755Z,19.00
2023-04-01T08:07:16.942Z,16.00
2023-04-01T08:10:06.242Z,15.60
2023-04-01T08:13:15.658Z,17.10
2023-04-01T08:16:13.530Z,19.50
2023-04-01T08:19:01.804Z,14.20
2023-04-01T08:21:34.661Z,14.30
2023-04-01T08:24:17.391Z,15.80
2023-04-01T08:26:47.902Z,18.50
2023-04-01T08:29:22.806Z,19.50
2023-04-01T08:32:00.546Z,21.00
2023-04-01T08:34:37.853Z,18.90
2023-04-01T08:37:09.514Z,21.70
2023-04-01T08:39:40.895Z,22.40
2023-04-01T08:42:26.254Z,21.80
2023-04-01T08:45:17.641Z,20.50
2023-04-01T08:47:49.167Z,18.70
2023-04-01T08:50:25.067Z,19.20
2023-04-01T08:53:34.478Z,17.50
2023-04-01T08:56:24.812Z,14.80
2023-04-01T08:59:16.694Z,13.60
2023-04-01T09:02:17.938Z,15.40
2023-04-01T09:05:20.202Z,14.40
2023-04-01T09:08:14.965Z,14.40
2023-04-01T09:11:05.750Z,16.90
2023-04-01T09:14:23.835Z,15.70
2023-04-01T09:17:21.041Z,14.70
2023-04-01T09:20:26.133Z,14.80
2023-04-01T09:23:08.888Z,13.90
2023-04-01T09:25:49.450Z,12.60
2023-04-01T09:28:29.218Z,11.10
2023-04-01T09:31:32.776Z,11.80
2023-04-01T09:34:57.066Z,12.70
2023-04-01T09:37:48.016Z,12.70
2023-04-01T09:40:43.230Z,11.50
2023-04-01T09:43:41.056Z,11.40
2023-04-01T09:46:42.995Z,9.30
2023-04-01T09:49:42.679Z,8.00
2023-04-01T09:52:33.596Z,8.90
2023-04-01T09:55:09.601Z,8.40
2023-04-01T09:57:56.278Z,9.20
2023-04-01T10:00:55.833Z,7.10
2023-04-01T10:03:50.622Z,7.70
2023-04-01T10:06:45.482Z,8.30
2023-04-01T10:09:50.741Z,9.20
2023-04-01T10:12:36.592Z,16.10
2023-04-01T10:15:25.036Z,16.60
2023-04-01T10:18:07.961Z,16.40
2023-04-01T10:20:38.763Z,17.10
2023-04-01T10:23:21.471Z,16.70
2023-04-01T10:26:27.323Z,17.20
2023-04-01T10:29:39.665Z,16.30
2023-04-01T10:32:35.287Z,16.70
2023-04-01T10:35:24.993Z,16.40
2023-04-01T10:38:21.197Z,15.00
2023-04-01T10:41:00.010Z,14.20
2023-04-01T10:44:00.117Z,14.70
2023-04-01T10:47:04.626Z,16.10
2023-04-01T10:49:42.544Z,16.10
2023-04-01T10:52:20.084Z,16.00
2023-04-01T10:55:24.756Z,15.60
2023-04-01T10:58:38.724Z,22.70
2023-04-01T11:02:11.205Z,10.40
2023-04-01T11:05:36.620Z,11.00
2023-04-01T11:09:11.025Z,12.70
2023-04-01T11:11:54.648Z,15.20
2023-04-01T11:14:41.149Z,15.10
2023-04-01T11:17:32.862Z,24.10
2023-04-01T11:20:40.116Z,17.00
2023-04-01T11:23:55.059Z,22.80
2023-04-01T11:26:42.628Z,23.50
2023-04-01T11:29:58.653Z,16.80
2023-04-01T11:33:08.588Z,21.30
2023-04-01T11:35:58.364Z,17.40
2023-04-01T11:38:56.995Z,14.70
2023-04-01T11:42:10.604Z,16.30
2023-04-01T11:44:52.504Z,28.60
2023-04-01T11:47:37.455Z,9.40
2023-04-01T11:50:27.645Z,7.30
2023-04-01T11:53:18.518Z,8.40
2023-04-01T11:55:57.809Z,7.40
2023-04-01T11:58:49.568Z,6.70
2023-04-01T12:01:31.874Z,7.00
2023-04-01T12:04:30.810Z,6.40
2023-04-01T12:07:22.880Z,6.90
2023-04-01T12:10:04.556Z,8.70
2023-04-01T12:12:54.120Z,7.90
2023-04-01T12:15:34.664Z,6.00
2023-04-01T12:18:14.680Z,6.00
2023-04-01T12:21:47.320Z,5.00
2023-04-01T12:24:37.444Z,5.20
2023-04-01T12:27:23.405Z,7.90
2023-04-01T12:30:11.748Z,6.70
2023-04-01T12:32:51.538Z,8.10
2023-04-01T12:35:33.889Z,7.00
2023-04-01T12:38:39.973Z,9.80
2023-04-01T12:41:31.186Z,26.60
2023-04-01T12:44:24.980Z,18.90
2023-04-01T12:47:19.548Z,37.10
2023-04-01T12:50:24.808Z,53.10
2023-04-01T12:53:21.109Z,40.50
2023-04-01T12:55:53.654Z,46.10
2023-04-01T12:58:49.167Z,39.30
2023-04-01T13:01:31.917Z,106.00
2023-04-01T13:04:30.005Z,56.90
2023-04-01T13:07:34.154Z,10.70
2023-04-01T13:10:11.082Z,12.10
2023-04-01T13:12:51.062Z,13.20
2023-04-01T13:15:26.457Z,23.20
2023-04-01T13:18:13.260Z,15.00
2023-04-01T13:20:55.679Z,30.90
2023-04-01T13:23:51.068Z,14.70
2023-04-01T13:26:31.602Z,14.00
2023-04-01T13:29:20.978Z,14.70
2023-04-01T13:32:08.506Z,15.80
2023-04-01T13:34:55.143Z,15.90
2023-04-01T13:37:36.199Z,21.40
2023-04-01T13:40:21.221Z,18.90
2023-04-01T13:42:55.532Z,41.20
2023-04-01T13:45:49.381Z,34.10
2023-04-01T13:48:55.127Z,29.00
2023-04-01T13:51:35.016Z,38.20
2023-04-01T13:54:05.478Z,29.20
2023-04-01T13:57:11.179Z,78.60
2023-04-01T14:00:21.600Z,37.80
2023-04-01T14:03:44.413Z,15.30
2023-04-01T14:06:34.940Z,10.10
2023-04-01T14:09:53.959Z,8.10
2023-04-01T14:12:43.062Z,4.50
2023-04-01T14:15:39.844Z,4.30
2023-04-01T14:18:29.238Z,3.80
2023-04-01T14:21:14.548Z,3.80
2023-04-01T14:24:04.069Z,3.60
2023-04-01T14:26:51.136Z,4.80
2023-04-01T14:29:46.630Z,5.20
2023-04-01T14:32:36.725Z,6.20
2023-04-01T14:35:11.503Z,9.00
2023-04-01T14:37:56.456Z,9.30
2023-04-01T14:40:28.374Z,11.00
2023-04-01T14:43:05.740Z,11.70
2023-04-01T14:45:42.501Z,12.30
2023-04-01T14:48:34.650Z,13.60
2023-04-01T14:51:35.984Z,14.10
2023-04-01T14:54:09.406Z,14.30
2023-04-01T14:56:37.995Z,13.70
2023-04-01T14:59:11.040Z,14.50
2023-04-01T15:02:10.727Z,17.10
2023-04-01T15:04:59.958Z,18.30
2023-04-01T15:07:39.953Z,19.40
2023-04-01T15:10:20.881Z,25.10
2023-04-01T15:13:06.664Z,26.50
2023-04-01T15:15:43.103Z,25.60
2023-04-01T15:18:38.641Z,26.60
2023-04-01T15:21:14.576Z,27.00
2023-04-01T15:23:47.351Z,28.90
2023-04-01T15:26:41.162Z,31.40
2023-04-01T15:29:29.164Z,31.80
2023-04-01T15:32:24.928Z,30.50
2023-04-01T15:35:11.289Z,30.20
2023-04-01T15:37:57.429Z,35.00
2023-04-01T15:40:31.356Z,32.90
2023-04-01T15:43:12.833Z,27.80
2023-04-01T15:45:50.590Z,29.20
2023-04-01T15:48:36.836Z,28.50
2023-04-01T15:51:13.849Z,30.50
2023-04-01T15:54:13.913Z,28.50
2023-04-01T15:56:50.586Z,30.70
2023-04-01T15:59:32.764Z,30.80
2023-04-01T16:02:14.756Z,33.30
2023-04-01T16:04:57.137Z,30.50
2023-04-01T16:07:53.104Z,31.30
2023-04-01T16:10:42.222Z,31.40
2023-04-01T16:13:22.264Z,29.90
2023-04-01T16:16:20.939Z,30.20
2023-04-01T16:18:54.390Z,27.60
2023-04-01T16:21:24.718Z,27.20
2023-04-01T16:24:11.215Z,26.10
2023-04-01T16:27:00.904Z,27.80
2023-04-01T16:30:03.246Z,26.30
2023-04-01T16:32:44.738Z,26.70
2023-04-01T16:35:28.109Z,26.60
2023-04-01T16:38:30.196Z,26.90
2023-04-01T16:41:03.813Z,25.70
2023-04-01T16:43:52.737Z,27.60
2023-04-01T16:46:42.284Z,25.00
2023-04-01T16:49:12.963Z,26.60
2023-04-01T16:51:56.063Z,28.30
2023-04-01T16:54:37.642Z,27.30
2023-04-01T16:57:35.803Z,29.50
2023-04-01T17:00:25.383Z,28.70
2023-04-01T17:02:59.409Z,27.90
2023-04-01T17:05:45.695Z,29.50
2023-04-01T17:08:25.518Z,30.40
2023-04-01T17:11:12.094Z,29.70
2023-04-01T17:13:49.816Z,31.20
2023-04-01T17:16:27.038Z,30.10
2023-04-01T17:19:25.680Z,31.70
2023-04-01T17:22:25.991Z,33.10
2023-04-01T17:25:29.171Z,32.70
2023-04-01T17:28:35.601Z,35.30
2023-04-01T17:31:34.719Z,35.70
2023-04-01T17:34:11.458Z,35.10
2023-04-01T17:37:08.632Z,36.40
2023-04-01T17:39:47.046Z,37.90
2023-04-01T17:42:23.326Z,38.60
2023-04-01T17:45:15.494Z,38.90
2023-04-01T17:48:07.047Z,39.40
2023-04-01T17:50:51.357Z,38.20
2023-04-01T17:53:37.455Z,38.70
2023-04-01T17:56:23.619Z,40.10
2023-04-01T17:59:03.837Z,40.40
2023-04-01T18:01:55.627Z,42.00
2023-04-01T18:04:52.713Z,40.00
2023-04-01T18:08:00.033Z,41.20
2023-04-01T18:10:51.867Z,42.40
2023-04-01T18:13:31.368Z,41.30
2023-04-01T18:16:20.162Z,43.60
2023-04-01T18:19:04.624Z,41.60
2023-04-01T18:21:54.664Z,42.40
2023-04-01T18:24:32.916Z,42.30
2023-04-01T18:27:05.311Z,41.80
2023-04-01T18:30:06.128Z,41.80
2023-04-01T18:32:43.885Z,40.00
2023-04-01T18:35:32.006Z,40.00
2023-04-01T18:38:26.733Z,40.00
2023-04-01T18:41:15.704Z,38.40
2023-04-01T18:44:01.081Z,38.80
2023-04-01T18:46:55.332Z,38.20
2023-04-01T18:49:26.149Z,39.20
2023-04-01T18:51:58.514Z,41.10
2023-04-01T18:54:35.742Z,40.10
2023-04-01T18:57:09.764Z,40.70
2023-04-01T18:59:43.206Z,40.90
2023-04-01T19:02:34.888Z,43.80
2023-04-01T19:05:19.898Z,40.90
2023-04-01T19:07:52.985Z,39.20
2023-04-01T19:10:42.937Z,37.60
2023-04-01T19:13:27.296Z,36.90
2023-04-01T19:16:04.052Z,39.10
2023-04-01T19:18:40.815Z,38.10
2023-04-01T19:21:29.265Z,38.80
2023-04-01T19:24:23.249Z,38.20
2023-04-01T19:27:12.441Z,36.10
2023-04-01T19:29:50.122Z,34.80
2023-04-01T19:32:34.779Z,35.80
2023-04-01T19:35:11.687Z,36.60
2023-04-01T19:38:04.023Z,38.30
2023-04-01T19:40:37.442Z,37.70
2023-04-01T19:43:14.739Z,39.60
2023-04-01T19:46:14.927Z,36.90
2023-04-01T19:49:05.975Z,38.70
2023-04-01T19:51:44.099Z,40.70
2023-04-01T19:54:14.277Z,42.40
2023-04-01T19:56:50.773Z,38.20
2023-04-01T19:59:33.785Z,38.80
2023-04-01T20:02:16.676Z,37.70
2023-04-01T20:04:57.958Z,36.90
2023-04-01T20:07:28.418Z,38.30
2023-04-01T20:10:04.719Z,37.60
2023-04-01T20:12:56.411Z,38.50
2023-04-01T20:15:31.554Z,37.20
2023-04-01T20:18:02.171Z,37.70
2023-04-01T20:20:31.034Z,36.60
2023-04-01T20:23:08.092Z,36.30
2023-04-01T20:25:54.008Z,34.90
2023-04-01T20:28:27.109Z,34.80
2023-04-01T20:31:14.185Z,33.20
2023-04-01T20:34:06.541Z,33.20
2023-04-01T20:36:48.715Z,35.70
2023-04-01T20:39:21.481Z,37.50
2023-04-01T20:42:08.046Z,38.30
2023-04-01T20:45:02.240Z,38.40
2023-04-01T20:48:04.233Z,36.60
2023-04-01T20:50:48.337Z,36.40
2023-04-01T20:53:18.995Z,32.90
2023-04-01T20:56:14.901Z,32.50
2023-04-01T20:58:51.453Z,34.60
2023-04-01T21:01:50.180Z,35.30
2023-04-01T21:04:46.299Z,34.90
2023-04-01T21:08:08.809Z,33.50
2023-04-01T21:10:49.642Z,36.10
2023-04-01T21:13:55.408Z,34.20
2023-04-01T21:16:31.803Z,33.70
2023-04-01T21:19:26.611Z,35.30
2023-04-01T21:22:00.230Z,35.10
2023-04-01T21:25:00.793Z,33.00
2023-04-01T21:27:37.480Z,32.90
2023-04-01T21:30:33.328Z,32.30
2023-04-01T21:33:42.404Z,31.70
2023-04-01T21:36:25.786Z,32.50
2023-04-01T21:39:28.423Z,32.60
2023-04-01T21:42:28.257Z,32.80
2023-04-01T21:45:07.633Z,31.40
2023-04-01T21:48:04.198Z,32.10
2023-04-01T21:50:46.397Z,31.70
2023-04-01T21:53:39.669Z,31.70
2023-04-01T21:56:49.401Z,31.40
2023-04-01T21:59:35.401Z,31.50
2023-04-01T22:02:40.935Z,29.80
2023-04-01T22:05:19.536Z,29.40
2023-04-01T22:08:05.981Z,30.60
2023-04-01T22:10:46.885Z,28.60
2023-04-01T22:13:22.692Z,27.30
2023-04-01T22:16:06.647Z,25.80
2023-04-01T22:18:35.953Z,25.10
2023-04-01T22:21:14.425Z,25.70
2023-04-01T22:24:00.163Z,24.90
2023-04-01T22:27:01.521Z,25.00
2023-04-01T22:29:58.459Z,23.90
2023-04-01T22:32:33.927Z,24.90
2023-04-01T22:35:25.423Z,26.30
2023-04-01T22:38:34.787Z,25.50
2023-04-01T22:41:20.030Z,23.90
2023-04-01T22:43:48.592Z,22.80
2023-04-01T22:46:28.649Z,22.30
2023-04-01T22:49:28.812Z,23.20
2023-04-01T22:52:04.860Z,23.00
2023-04-01T22:54:55.032Z,22.00
2023-04-01T22:57:31.671Z,20.80
2023-04-01T23:00:09.626Z,20.10
2023-04-01T23:02:40.773Z,21.10
2023-04-01T23:05:14.251Z,20.90
2023-04-01T23:08:19.643Z,20.50
2023-04-01T23:11:02.593Z,20.00
2023-04-01T23:13:33.685Z,19.70
2023-04-01T23:16:01.700Z,20.70
2023-04-01T23:18:33.779Z,22.00
2023-04-01T23:21:10.913Z,20.40
2023-04-01T23:24:10.620Z,20.50
2023-04-01T23:26:50.941Z,20.00
2023-04-01T23:29:20.587Z,20.00
2023-04-01T23:31:49.521Z,21.00
2023-04-01T23:34:23.769Z,20.90
2023-04-01T23:36:54.541Z,21.10
2023-04-01T23:39:24.727Z,21.60
2023-04-01T23:41:55.839Z,22.70
2023-04-01T23:44:25.813Z,21.20
2023-04-01T23:46:54.578Z,20.80
2023-04-01T23:49:26.535Z,20.50
2023-04-01T23:51:57.844Z,19.80
2023-04-01T23:54:40.971Z,19.80
2023-04-01T23:57:14.812Z,19.90
2023-04-01T23:59:42.609Z,21.20
